createdAt,value
2019-03-27T00:00:33.393Z,17.33
2019-03-27T00:03:01.662Z,19.97
2019-03-27T00:05:29.949Z,18.77
2019-03-27T00:07:58.151Z,21.27
2019-03-27T00:10:26.437Z,18.50
2019-03-27T00:12:54.625Z,20.30
2019-03-27T00:15:22.850Z,18.93
2019-03-27T00:17:51.113Z,20.70
2019-03-27T00:20:19.394Z,15.37
2019-03-27T00:22:47.586Z,18.50
2019-03-27T00:25:15.798Z,18.07
2019-03-27T00:27:44.068Z,19.07
2019-03-27T00:30:12.430Z,21.47
2019-03-27T00:32:40.703Z,21.57
2019-03-27T00:35:09.166Z,22.63
2019-03-27T00:37:37.367Z,19.00
2019-03-27T00:40:06.826Z,17.90
2019-03-27T00:42:35.089Z,16.70
2019-03-27T00:45:04.374Z,19.70
2019-03-27T00:47:32.646Z,20.07
2019-03-27T00:50:00.929Z,20.30
2019-03-27T00:52:29.126Z,18.63
2019-03-27T00:54:57.417Z,16.67
2019-03-27T00:57:25.614Z,18.93
2019-03-27T00:59:53.876Z,17.93
2019-03-27T01:02:22.161Z,19.07
2019-03-27T01:04:50.348Z,20.70
2019-03-27T01:07:18.641Z,16.10
2019-03-27T01:09:46.901Z,23.50
2019-03-27T01:12:15.122Z,17.20
2019-03-27T01:14:43.390Z,18.60
2019-03-27T01:17:11.677Z,18.20
2019-03-27T01:19:39.873Z,25.73
2019-03-27T01:22:08.158Z,26.90
2019-03-27T01:24:36.344Z,25.30
2019-03-27T01:27:04.549Z,21.07
2019-03-27T01:29:32.833Z,21.00
2019-03-27T01:32:01.030Z,21.43
2019-03-27T01:34:29.321Z,24.57
2019-03-27T01:36:57.590Z,16.63
2019-03-27T01:39:25.803Z,24.97
2019-03-27T01:41:54.079Z,18.27
2019-03-27T01:44:22.364Z,18.93
2019-03-27T01:46:50.621Z,18.73
2019-03-27T01:49:18.838Z,19.17
2019-03-27T01:51:47.025Z,19.00
2019-03-27T01:54:15.238Z,18.47
2019-03-27T01:56:43.442Z,23.10
2019-03-27T01:59:11.726Z,21.83
2019-03-27T02:01:39.913Z,26.77
2019-03-27T02:04:08.126Z,19.50
2019-03-27T02:06:36.317Z,17.83
2019-03-27T02:09:05.169Z,24.47
2019-03-27T02:11:33.435Z,19.60
2019-03-27T02:14:01.721Z,21.70
2019-03-27T02:16:29.914Z,18.40
2019-03-27T02:18:58.569Z,20.53
2019-03-27T02:21:26.756Z,18.10
2019-03-27T02:23:57.870Z,22.97
2019-03-27T02:26:26.058Z,22.27
2019-03-27T02:28:54.252Z,21.90
2019-03-27T02:31:22.542Z,26.87
2019-03-27T02:33:50.811Z,21.23
2019-03-27T02:36:19.169Z,23.90
2019-03-27T02:38:47.437Z,25.60
2019-03-27T02:41:15.726Z,22.83
2019-03-27T02:43:43.991Z,20.47
2019-03-27T02:46:24.627Z,27.33
2019-03-27T02:48:42.209Z,21.90
2019-03-27T02:51:10.491Z,23.80
2019-03-27T02:53:38.755Z,18.67
2019-03-27T02:56:07.038Z,23.87
2019-03-27T02:58:35.299Z,21.27
2019-03-27T03:01:03.667Z,21.80
2019-03-27T03:03:31.930Z,21.27
2019-03-27T03:06:00.222Z,24.23
2019-03-27T03:08:28.406Z,29.47
2019-03-27T03:10:56.695Z,21.83
2019-03-27T03:13:24.972Z,24.17
2019-03-27T03:15:53.282Z,24.13
2019-03-27T03:18:21.525Z,21.43
2019-03-27T03:20:49.806Z,25.80
2019-03-27T03:23:18.004Z,24.30
2019-03-27T03:25:46.270Z,19.03
2019-03-27T03:28:14.562Z,27.93
2019-03-27T03:30:42.839Z,24.50
2019-03-27T03:33:11.134Z,21.57
2019-03-27T03:35:39.396Z,23.40
2019-03-27T03:38:07.682Z,30.73
2019-03-27T03:40:35.979Z,23.67
2019-03-27T03:43:04.247Z,21.40
2019-03-27T03:45:32.509Z,27.30
2019-03-27T03:48:00.724Z,22.63
2019-03-27T03:50:33.448Z,29.10
2019-03-27T03:53:01.730Z,27.67
2019-03-27T03:55:31.462Z,21.10
2019-03-27T03:58:01.218Z,22.20
2019-03-27T04:00:29.762Z,20.63
2019-03-27T04:02:58.326Z,28.33
2019-03-27T04:05:26.586Z,22.20
2019-03-27T04:07:54.804Z,24.17
2019-03-27T04:10:23.077Z,21.10
2019-03-27T04:12:51.386Z,34.87
2019-03-27T04:15:19.630Z,26.30
2019-03-27T04:17:47.843Z,25.67
2019-03-27T04:20:16.192Z,33.77
2019-03-27T04:22:44.479Z,22.47
2019-03-27T04:25:12.811Z,27.87
2019-03-27T04:27:41.100Z,25.80
2019-03-27T04:30:09.643Z,24.30
2019-03-27T04:32:38.028Z,26.80
2019-03-27T04:35:07.038Z,31.67
2019-03-27T04:37:35.305Z,27.03
2019-03-27T04:40:04.763Z,23.33
2019-03-27T04:42:33.026Z,23.43
2019-03-27T04:45:01.320Z,28.20
2019-03-27T04:47:32.455Z,27.23
2019-03-27T04:49:59.507Z,26.80
2019-03-27T04:52:27.697Z,22.60
2019-03-27T04:54:55.914Z,24.57
2019-03-27T04:57:24.101Z,29.87
2019-03-27T04:59:52.365Z,28.63
2019-03-27T05:02:20.570Z,26.50
2019-03-27T05:04:48.958Z,27.10
2019-03-27T05:07:17.221Z,24.07
2019-03-27T05:09:45.505Z,26.53
2019-03-27T05:12:13.697Z,32.20
2019-03-27T05:14:41.910Z,27.60
2019-03-27T05:17:10.098Z,26.27
2019-03-27T05:19:38.400Z,35.77
2019-03-27T05:22:06.666Z,30.00
2019-03-27T05:24:34.938Z,27.67
2019-03-27T05:27:03.221Z,26.03
2019-03-27T05:29:31.413Z,29.03
2019-03-27T05:31:59.626Z,34.03
2019-03-27T05:34:27.810Z,30.20
2019-03-27T05:36:56.097Z,25.27
2019-03-27T05:39:24.285Z,29.00
2019-03-27T05:41:52.498Z,25.93
2019-03-27T05:44:20.770Z,31.43
2019-03-27T05:46:49.057Z,25.10
2019-03-27T05:49:17.324Z,26.27
2019-03-27T05:51:45.609Z,29.30
2019-03-27T05:54:13.798Z,26.90
2019-03-27T05:56:42.096Z,29.63
2019-03-27T05:59:10.359Z,27.60
2019-03-27T06:01:38.578Z,28.57
2019-03-27T06:04:06.765Z,28.13
2019-03-27T06:06:34.955Z,25.07
2019-03-27T06:09:04.216Z,26.50
2019-03-27T06:11:32.486Z,41.87
2019-03-27T06:14:00.777Z,33.30
2019-03-27T06:16:28.978Z,27.50
2019-03-27T06:18:57.257Z,25.87
2019-03-27T06:21:25.450Z,33.07
2019-03-27T06:23:53.662Z,28.77
2019-03-27T06:26:21.850Z,29.57
2019-03-27T06:28:50.066Z,31.43
2019-03-27T06:31:18.265Z,32.83
2019-03-27T06:33:46.490Z,31.70
2019-03-27T06:36:14.749Z,33.07
2019-03-27T06:38:42.968Z,25.73
2019-03-27T06:41:11.242Z,28.47
2019-03-27T06:43:39.459Z,26.57
2019-03-27T06:46:07.724Z,31.43
2019-03-27T06:48:36.177Z,33.50
2019-03-27T06:51:04.512Z,39.70
2019-03-27T06:53:32.698Z,31.90
2019-03-27T06:56:00.909Z,32.20
2019-03-27T06:58:29.107Z,39.30
2019-03-27T07:00:57.324Z,33.60
2019-03-27T07:03:25.590Z,33.73
2019-03-27T07:05:53.949Z,34.00
2019-03-27T07:08:22.142Z,36.70
2019-03-27T07:10:50.358Z,31.73
2019-03-27T07:13:18.550Z,32.00
2019-03-27T07:15:46.761Z,33.47
2019-03-27T07:18:14.950Z,41.90
2019-03-27T07:20:43.171Z,35.17
2019-03-27T07:23:11.437Z,31.17
2019-03-27T07:25:39.658Z,34.97
2019-03-27T07:28:07.931Z,37.63
2019-03-27T07:30:36.213Z,35.83
2019-03-27T07:33:04.486Z,40.20
2019-03-27T07:35:32.778Z,34.23
2019-03-27T07:38:01.038Z,38.27
2019-03-27T07:40:29.253Z,37.77
2019-03-27T07:42:57.445Z,35.23
2019-03-27T07:45:26.591Z,28.40
2019-03-27T07:47:54.789Z,35.87
2019-03-27T07:50:23.051Z,32.83
2019-03-27T07:52:51.266Z,32.67
2019-03-27T07:55:20.016Z,32.97
2019-03-27T07:57:48.339Z,33.67
2019-03-27T08:00:17.873Z,35.33
2019-03-27T08:02:46.089Z,30.77
2019-03-27T08:05:14.417Z,39.47
2019-03-27T08:07:42.635Z,35.77
2019-03-27T08:10:11.065Z,33.70
2019-03-27T08:12:39.358Z,36.03
2019-03-27T08:15:07.889Z,29.07
2019-03-27T08:17:36.103Z,32.53
2019-03-27T08:20:07.437Z,33.50
2019-03-27T08:22:35.722Z,34.87
2019-03-27T08:25:04.960Z,33.17
2019-03-27T08:27:33.242Z,31.63
2019-03-27T08:30:01.441Z,30.97
2019-03-27T08:32:29.723Z,38.70
2019-03-27T08:34:57.986Z,34.03
2019-03-27T08:37:26.197Z,35.67
2019-03-27T08:39:54.395Z,35.67
2019-03-27T08:42:23.007Z,37.67
2019-03-27T08:44:51.335Z,30.80
2019-03-27T08:47:19.622Z,34.60
2019-03-27T08:49:47.813Z,34.47
2019-03-27T08:52:16.026Z,33.37
2019-03-27T08:54:44.225Z,31.80
2019-03-27T08:57:12.438Z,31.63
2019-03-27T08:59:40.625Z,35.83
2019-03-27T09:02:08.845Z,33.90
2019-03-27T09:04:37.041Z,36.40
2019-03-27T09:07:05.430Z,34.07
2019-03-27T09:09:34.494Z,34.20
2019-03-27T09:12:02.781Z,34.23
2019-03-27T09:14:31.048Z,30.70
2019-03-27T09:16:59.403Z,31.70
2019-03-27T09:19:35.651Z,31.37
2019-03-27T09:21:57.597Z,29.87
2019-03-27T09:24:25.793Z,27.43
2019-03-27T09:26:54.010Z,25.60
2019-03-27T09:29:22.277Z,29.93
2019-03-27T09:31:50.564Z,9.60
2019-03-27T09:34:19.070Z,13.33
2019-03-27T09:36:47.376Z,15.07
2019-03-27T09:39:15.622Z,18.37
2019-03-27T09:41:43.906Z,19.87
2019-03-27T09:44:12.094Z,15.20
2019-03-27T09:46:40.304Z,8.90
2019-03-27T09:49:08.563Z,15.73
2019-03-27T09:51:36.763Z,16.00
2019-03-27T09:54:05.123Z,10.13
2019-03-27T09:56:33.382Z,10.50
2019-03-27T09:59:01.593Z,13.00
2019-03-27T10:01:29.871Z,10.40
2019-03-27T10:03:58.217Z,10.07
2019-03-27T10:06:26.410Z,7.50
2019-03-27T10:08:54.681Z,7.00
2019-03-27T10:11:23.944Z,7.23
2019-03-27T10:13:52.213Z,5.90
2019-03-27T10:16:20.473Z,5.43
2019-03-27T10:18:48.725Z,6.73
2019-03-27T10:21:16.941Z,7.80
2019-03-27T10:23:45.193Z,4.77
2019-03-27T10:26:13.483Z,4.57
2019-03-27T10:28:41.742Z,7.07
2019-03-27T10:31:10.030Z,14.03
2019-03-27T10:33:38.289Z,7.83
2019-03-27T10:36:06.569Z,8.57
2019-03-27T10:38:34.829Z,5.47
2019-03-27T10:41:03.117Z,8.47
2019-03-27T10:43:31.374Z,7.43
2019-03-27T10:45:59.658Z,9.10
2019-03-27T10:48:27.909Z,6.97
2019-03-27T10:50:56.145Z,11.00
2019-03-27T10:53:24.337Z,8.13
2019-03-27T10:55:52.550Z,5.60
2019-03-27T10:58:20.815Z,4.70
2019-03-27T11:00:49.098Z,7.57
2019-03-27T11:03:17.281Z,9.00
2019-03-27T11:05:45.546Z,6.40
2019-03-27T11:08:13.829Z,6.00
2019-03-27T11:10:42.015Z,5.40
2019-03-27T11:13:10.291Z,8.37
2019-03-27T11:15:38.473Z,5.13
2019-03-27T11:18:06.835Z,5.07
2019-03-27T11:20:35.089Z,6.60
2019-03-27T11:23:03.441Z,5.83
2019-03-27T11:25:33.258Z,6.70
2019-03-27T11:28:01.869Z,6.67
2019-03-27T11:30:36.655Z,6.40
2019-03-27T11:33:05.286Z,4.87
2019-03-27T11:35:33.493Z,4.70
2019-03-27T11:38:01.681Z,8.97
2019-03-27T11:40:29.902Z,5.80
2019-03-27T11:42:58.165Z,7.20
2019-03-27T11:45:26.384Z,5.17
2019-03-27T11:47:54.638Z,5.40
2019-03-27T11:50:22.845Z,4.80
2019-03-27T11:52:51.108Z,8.97
2019-03-27T11:55:19.318Z,7.00
2019-03-27T11:57:47.585Z,6.10
2019-03-27T12:00:15.875Z,7.40
2019-03-27T12:02:44.125Z,5.97
2019-03-27T12:05:12.511Z,6.27
2019-03-27T12:07:40.782Z,5.50
2019-03-27T12:10:09.300Z,7.40
2019-03-27T12:12:37.497Z,6.70
2019-03-27T12:15:06.855Z,8.90
2019-03-27T12:17:35.138Z,7.83
2019-03-27T12:20:04.574Z,6.37
2019-03-27T12:22:32.855Z,7.90
2019-03-27T12:25:01.110Z,4.90
2019-03-27T12:27:29.393Z,7.80
2019-03-27T12:29:57.653Z,5.33
2019-03-27T12:32:25.861Z,6.70
2019-03-27T12:34:54.051Z,5.50
2019-03-27T12:37:22.346Z,8.87
2019-03-27T12:39:50.533Z,8.90
2019-03-27T12:42:18.732Z,9.17
2019-03-27T12:44:47.009Z,7.67
2019-03-27T12:47:15.259Z,8.30
2019-03-27T12:49:43.533Z,9.97
2019-03-27T12:52:11.725Z,10.10
2019-03-27T12:54:39.938Z,14.73
2019-03-27T12:57:08.202Z,8.90
2019-03-27T12:59:36.411Z,11.40
2019-03-27T13:02:04.873Z,10.90
2019-03-27T13:04:33.062Z,8.60
2019-03-27T13:07:01.290Z,8.57
2019-03-27T13:09:29.632Z,9.73
2019-03-27T13:11:57.830Z,6.77
2019-03-27T13:14:26.227Z,8.87
2019-03-27T13:16:54.498Z,7.43
2019-03-27T13:19:22.758Z,10.47
2019-03-27T13:21:51.318Z,9.60
2019-03-27T13:24:19.582Z,8.10
2019-03-27T13:26:47.861Z,6.57
2019-03-27T13:29:16.126Z,6.77
2019-03-27T13:31:44.462Z,6.67
2019-03-27T13:34:14.253Z,9.57
2019-03-27T13:36:44.098Z,8.73
2019-03-27T13:39:12.361Z,11.70
2019-03-27T13:41:40.578Z,6.23
2019-03-27T13:44:08.789Z,6.17
2019-03-27T13:46:37.107Z,8.10
2019-03-27T13:49:05.361Z,6.50
2019-03-27T13:51:40.376Z,8.13
2019-03-27T13:54:03.625Z,8.80
2019-03-27T13:56:31.917Z,8.23
2019-03-27T13:59:00.114Z,7.67
2019-03-27T14:01:28.389Z,6.70
2019-03-27T14:03:56.695Z,8.10
2019-03-27T14:06:24.965Z,7.93
2019-03-27T14:08:53.225Z,6.23
2019-03-27T14:11:21.451Z,7.33
2019-03-27T14:13:49.646Z,10.17
2019-03-27T14:16:18.002Z,6.47
2019-03-27T14:18:48.802Z,7.43
2019-03-27T14:21:16.103Z,7.00
2019-03-27T14:23:44.386Z,8.83
2019-03-27T14:26:12.653Z,6.03
2019-03-27T14:28:40.939Z,4.97
2019-03-27T14:31:09.266Z,5.40
2019-03-27T14:33:37.555Z,5.20
2019-03-27T14:36:05.821Z,5.67
2019-03-27T14:38:34.178Z,10.03
2019-03-27T14:41:02.936Z,6.83
2019-03-27T14:43:31.222Z,5.20
2019-03-27T14:45:59.490Z,6.83
2019-03-27T14:48:27.697Z,5.43
2019-03-27T14:50:55.962Z,6.23
2019-03-27T14:53:24.252Z,5.83
2019-03-27T14:55:52.514Z,5.67
2019-03-27T14:58:21.567Z,5.83
2019-03-27T15:00:49.898Z,7.20
2019-03-27T15:03:18.443Z,7.50
2019-03-27T15:05:46.715Z,6.40
2019-03-27T15:08:29.029Z,6.97
2019-03-27T15:10:57.330Z,6.97
2019-03-27T15:13:25.534Z,6.13
2019-03-27T15:15:53.721Z,7.60
2019-03-27T15:18:22.008Z,7.03
2019-03-27T15:20:50.291Z,6.70
2019-03-27T15:23:18.549Z,7.40
2019-03-27T15:25:46.942Z,7.90
2019-03-27T15:28:15.200Z,5.90
2019-03-27T15:30:43.746Z,7.60
2019-03-27T15:33:12.258Z,6.50
2019-03-27T15:35:40.543Z,5.53
2019-03-27T15:38:09.370Z,5.87
2019-03-27T15:40:38.318Z,7.10
2019-03-27T15:43:06.660Z,6.00
2019-03-27T15:45:34.946Z,7.30
2019-03-27T15:48:03.276Z,7.60
2019-03-27T15:50:31.557Z,5.50
2019-03-27T15:52:59.741Z,7.87
2019-03-27T15:55:28.025Z,6.30
2019-03-27T15:57:56.222Z,5.77
2019-03-27T16:00:24.494Z,8.27
2019-03-27T16:02:52.779Z,3.77
2019-03-27T16:05:21.042Z,4.90
2019-03-27T16:07:49.326Z,6.67
2019-03-27T16:10:18.505Z,7.17
2019-03-27T16:12:46.834Z,5.80
2019-03-27T16:15:16.995Z,4.10
2019-03-27T16:17:45.276Z,5.70
2019-03-27T16:20:13.609Z,7.87
2019-03-27T16:22:50.426Z,7.07
2019-03-27T16:25:11.812Z,5.67
2019-03-27T16:27:40.097Z,7.00
2019-03-27T16:30:08.729Z,4.40
2019-03-27T16:32:37.009Z,5.70
2019-03-27T16:35:06.038Z,5.70
2019-03-27T16:37:34.260Z,8.77
2019-03-27T16:40:02.582Z,5.80
2019-03-27T16:42:30.955Z,8.27
2019-03-27T16:44:59.216Z,5.00
2019-03-27T16:47:27.542Z,5.73
2019-03-27T16:49:55.826Z,8.60
2019-03-27T16:52:24.095Z,5.87
2019-03-27T16:54:52.378Z,5.87
2019-03-27T16:57:20.633Z,9.10
2019-03-27T16:59:48.911Z,9.23
2019-03-27T17:02:17.169Z,8.07
2019-03-27T17:04:45.486Z,6.50
2019-03-27T17:07:13.746Z,8.70
2019-03-27T17:09:42.046Z,6.20
2019-03-27T17:12:10.232Z,5.40
2019-03-27T17:14:38.518Z,6.67
2019-03-27T17:17:06.778Z,5.90
2019-03-27T17:19:35.033Z,11.47
2019-03-27T17:22:03.318Z,10.20
2019-03-27T17:24:31.584Z,12.53
2019-03-27T17:26:59.893Z,17.57
2019-03-27T17:29:28.157Z,14.87
2019-03-27T17:31:56.446Z,11.47
2019-03-27T17:34:24.638Z,10.90
2019-03-27T17:36:52.849Z,6.63
2019-03-27T17:39:21.116Z,5.70
2019-03-27T17:41:49.414Z,6.27
2019-03-27T17:44:17.679Z,7.80
2019-03-27T17:46:45.929Z,5.17
2019-03-27T17:49:14.140Z,9.33
2019-03-27T17:51:42.330Z,7.87
2019-03-27T17:54:20.291Z,8.00
2019-03-27T17:56:40.515Z,8.33
2019-03-27T17:59:08.798Z,6.23
2019-03-27T18:01:36.982Z,6.27
2019-03-27T18:04:05.257Z,6.90
2019-03-27T18:06:33.449Z,7.67
2019-03-27T18:09:01.680Z,12.07
2019-03-27T18:11:29.941Z,12.47
2019-03-27T18:13:58.277Z,15.73
2019-03-27T18:16:26.567Z,14.93
2019-03-27T18:18:54.829Z,12.13
2019-03-27T18:21:23.277Z,15.73
2019-03-27T18:23:51.465Z,15.27
2019-03-27T18:26:19.702Z,12.27
2019-03-27T18:28:47.960Z,15.07
2019-03-27T18:31:16.471Z,11.93
2019-03-27T18:33:44.721Z,10.13
2019-03-27T18:36:12.937Z,7.60
2019-03-27T18:38:41.190Z,6.70
2019-03-27T18:41:09.465Z,6.13
2019-03-27T18:43:37.733Z,4.90
2019-03-27T18:46:06.011Z,5.97
2019-03-27T18:48:34.261Z,7.40
2019-03-27T18:51:02.475Z,4.33
2019-03-27T18:53:30.745Z,6.73
2019-03-27T18:55:59.007Z,3.43
2019-03-27T18:58:27.287Z,4.00
2019-03-27T19:00:55.479Z,4.43
2019-03-27T19:03:23.690Z,7.93
2019-03-27T19:05:51.883Z,4.93
2019-03-27T19:08:20.170Z,6.93
2019-03-27T19:10:48.686Z,4.90
2019-03-27T19:13:17.013Z,5.00
2019-03-27T19:15:45.229Z,6.23
2019-03-27T19:18:13.485Z,8.33
2019-03-27T19:20:41.778Z,5.67
2019-03-27T19:23:09.962Z,4.13
2019-03-27T19:25:38.257Z,8.10
2019-03-27T19:28:06.588Z,6.80
2019-03-27T19:30:34.797Z,4.63
2019-03-27T19:33:03.131Z,5.90
2019-03-27T19:35:31.434Z,5.37
2019-03-27T19:37:59.720Z,6.93
2019-03-27T19:40:27.981Z,6.20
2019-03-27T19:42:56.261Z,5.27
2019-03-27T19:45:24.523Z,3.90
2019-03-27T19:47:52.806Z,4.00
2019-03-27T19:50:21.065Z,5.10
2019-03-27T19:52:49.356Z,5.67
2019-03-27T19:55:17.606Z,5.53
2019-03-27T19:57:45.821Z,7.30
2019-03-27T20:00:14.355Z,11.93
2019-03-27T20:02:42.639Z,7.37
2019-03-27T20:05:10.894Z,6.20
2019-03-27T20:07:39.181Z,4.90
2019-03-27T20:10:07.609Z,6.73
2019-03-27T20:12:35.970Z,7.07
2019-03-27T20:15:12.254Z,6.80
2019-03-27T20:17:37.234Z,7.73
2019-03-27T20:20:07.406Z,5.83
2019-03-27T20:22:35.817Z,5.90
2019-03-27T20:25:05.497Z,4.23
2019-03-27T20:27:33.701Z,7.67
2019-03-27T20:30:01.989Z,8.37
2019-03-27T20:32:30.254Z,6.43
2019-03-27T20:34:58.567Z,6.20
2019-03-27T20:37:26.789Z,8.73
2019-03-27T20:39:55.073Z,4.30
2019-03-27T20:42:23.369Z,5.07
2019-03-27T20:44:51.680Z,6.83
2019-03-27T20:47:19.986Z,4.50
2019-03-27T20:49:48.261Z,5.13
2019-03-27T20:52:16.469Z,6.60
2019-03-27T20:54:54.915Z,6.37
2019-03-27T20:57:14.587Z,10.70
2019-03-27T20:59:42.874Z,6.37
2019-03-27T21:02:15.390Z,5.00
2019-03-27T21:04:43.653Z,6.03
2019-03-27T21:07:11.845Z,10.00
2019-03-27T21:09:40.053Z,4.80
2019-03-27T21:12:08.312Z,6.77
2019-03-27T21:14:36.522Z,4.00
2019-03-27T21:17:04.799Z,5.07
2019-03-27T21:19:36.072Z,8.63
2019-03-27T21:22:02.990Z,6.27
2019-03-27T21:24:31.273Z,4.60
2019-03-27T21:26:59.466Z,7.03
2019-03-27T21:29:27.750Z,7.20
2019-03-27T21:31:56.014Z,6.67
2019-03-27T21:34:24.231Z,7.20
2019-03-27T21:36:52.488Z,5.20
2019-03-27T21:39:20.698Z,5.00
2019-03-27T21:41:48.957Z,7.90
2019-03-27T21:44:17.258Z,9.13
2019-03-27T21:46:45.519Z,9.63
2019-03-27T21:49:13.773Z,10.30
2019-03-27T21:51:42.058Z,6.33
2019-03-27T21:54:10.246Z,5.77
2019-03-27T21:56:38.538Z,5.77
2019-03-27T21:59:06.796Z,9.50
2019-03-27T22:01:35.090Z,10.80
2019-03-27T22:04:03.422Z,6.70
2019-03-27T22:06:31.712Z,9.97
2019-03-27T22:08:59.890Z,5.63
2019-03-27T22:11:28.101Z,8.80
2019-03-27T22:13:56.358Z,7.43
2019-03-27T22:16:24.643Z,5.87
2019-03-27T22:18:52.893Z,5.47
2019-03-27T22:21:21.106Z,9.03
2019-03-27T22:23:49.363Z,5.50
2019-03-27T22:26:17.718Z,11.93
2019-03-27T22:28:45.908Z,6.33
2019-03-27T22:31:14.165Z,6.40
2019-03-27T22:33:42.378Z,8.27
2019-03-27T22:36:10.562Z,8.23
2019-03-27T22:38:38.846Z,5.03
2019-03-27T22:41:07.116Z,6.63
2019-03-27T22:43:35.393Z,8.03
2019-03-27T22:46:03.661Z,9.73
2019-03-27T22:48:31.945Z,6.47
2019-03-27T22:51:00.235Z,12.77
2019-03-27T22:53:28.508Z,7.73
2019-03-27T22:55:56.797Z,11.20
2019-03-27T22:58:25.054Z,9.27
2019-03-27T23:00:54.036Z,6.10
2019-03-27T23:03:22.293Z,8.23
2019-03-27T23:05:50.574Z,9.97
2019-03-27T23:08:18.901Z,6.40
2019-03-27T23:10:47.194Z,6.47
2019-03-27T23:13:15.449Z,6.17
2019-03-27T23:15:43.736Z,10.10
2019-03-27T23:18:11.998Z,9.10
2019-03-27T23:20:40.289Z,8.70
2019-03-27T23:23:08.542Z,9.80
2019-03-27T23:25:36.828Z,8.93
2019-03-27T23:28:05.085Z,9.87
2019-03-27T23:30:33.369Z,5.30
2019-03-27T23:33:01.734Z,6.17
2019-03-27T23:35:30.017Z,7.70
2019-03-27T23:37:58.284Z,11.27
2019-03-27T23:40:26.565Z,7.47
2019-03-27T23:42:54.927Z,8.43
2019-03-27T23:45:23.205Z,6.70
2019-03-27T23:47:51.463Z,6.60
2019-03-27T23:50:19.725Z,6.67
2019-03-27T23:52:48.017Z,15.23
2019-03-27T23:55:16.278Z,6.30
2019-03-27T23:57:44.570Z,7.97
